sensor_id;sensor_type;location;lat;lon;timestamp;P1;durP1;ratioP1;P2;durP2;ratioP2
18443;SDS011;9350;53.176;8.194;2023-04-24T00:01:54;3.70;;;3.40;;
18443;SDS011;9350;53.176;8.194;2023-04-24T00:04:23;3.20;;;3.00;;
18443;SDS011;9350;53.176;8.194;2023-04-24T00:06:50;4.30;;;3.33;;
18443;SDS011;9350;53.176;8.194;2023-04-24T00:09:19;3.45;;;3.15;;
18443;SDS011;9350;53.176;8.194;2023-04-24T00:11:47;3.95;;;3.38;;
18443;SDS011;9350;53.176;8.194;2023-04-24T00:14:14;3.42;;;3.20;;
18443;SDS011;9350;53.176;8.194;2023-04-24T00:16:41;3.65;;;3.35;;
18443;SDS011;9350;53.176;8.194;2023-04-24T00:19:07;3.10;;;2.90;;
18443;SDS011;9350;53.176;8.194;2023-04-24T00:21:34;2.70;;;2.53;;
18443;SDS011;9350;53.176;8.194;2023-04-24T00:24:01;1.73;;;1.63;;
18443;SDS011;9350;53.176;8.194;2023-04-24T00:26:27;1.58;;;1.40;;
18443;SDS011;9350;53.176;8.194;2023-04-24T00:28:55;1.10;;;1.10;;
18443;SDS011;9350;53.176;8.194;2023-04-24T00:31:22;0.90;;;0.90;;
18443;SDS011;9350;53.176;8.194;2023-04-24T00:33:49;0.90;;;0.90;;
18443;SDS011;9350;53.176;8.194;2023-04-24T00:36:16;1.10;;;1.10;;
18443;SDS011;9350;53.176;8.194;2023-04-24T00:38:44;0.88;;;0.88;;
18443;SDS011;9350;53.176;8.194;2023-04-24T00:41:11;1.17;;;1.10;;
18443;SDS011;9350;53.176;8.194;2023-04-24T00:43:38;0.90;;;0.90;;
18443;SDS011;9350;53.176;8.194;2023-04-24T00:46:06;1.30;;;1.00;;
18443;SDS011;9350;53.176;8.194;2023-04-24T00:48:34;0.93;;;0.93;;
18443;SDS011;9350;53.176;8.194;2023-04-24T00:51:01;0.98;;;0.98;;
18443;SDS011;9350;53.176;8.194;2023-04-24T00:53:28;1.05;;;1.05;;
18443;SDS011;9350;53.176;8.194;2023-04-24T00:55:54;1.38;;;1.30;;
18443;SDS011;9350;53.176;8.194;2023-04-24T00:58:22;1.15;;;1.10;;
18443;SDS011;9350;53.176;8.194;2023-04-24T01:00:49;1.00;;;1.00;;
18443;SDS011;9350;53.176;8.194;2023-04-24T01:03:20;1.20;;;1.20;;
18443;SDS011;9350;53.176;8.194;2023-04-24T01:05:48;1.40;;;1.40;;
18443;SDS011;9350;53.176;8.194;2023-04-24T01:08:15;1.42;;;1.42;;
18443;SDS011;9350;53.176;8.194;2023-04-24T01:10:42;1.50;;;1.50;;
18443;SDS011;9350;53.176;8.194;2023-04-24T01:13:11;1.88;;;1.38;;
18443;SDS011;9350;53.176;8.194;2023-04-24T01:15:37;1.52;;;1.42;;
18443;SDS011;9350;53.176;8.194;2023-04-24T01:18:05;1.70;;;1.60;;
18443;SDS011;9350;53.176;8.194;2023-04-24T01:20:33;1.75;;;1.65;;
18443;SDS011;9350;53.176;8.194;2023-04-24T01:23:03;1.95;;;1.80;;
18443;SDS011;9350;53.176;8.194;2023-04-24T01:25:29;1.80;;;1.77;;
18443;SDS011;9350;53.176;8.194;2023-04-24T01:27:57;2.58;;;1.85;;
18443;SDS011;9350;53.176;8.194;2023-04-24T01:30:24;3.13;;;2.08;;
18443;SDS011;9350;53.176;8.194;2023-04-24T01:32:51;2.17;;;1.58;;
18443;SDS011;9350;53.176;8.194;2023-04-24T01:35:19;1.60;;;1.50;;
18443;SDS011;9350;53.176;8.194;2023-04-24T01:37:46;1.65;;;1.55;;
18443;SDS011;9350;53.176;8.194;2023-04-24T01:40:15;1.60;;;1.60;;
18443;SDS011;9350;53.176;8.194;2023-04-24T01:42:41;1.70;;;1.60;;
18443;SDS011;9350;53.176;8.194;2023-04-24T01:45:10;1.60;;;1.60;;
18443;SDS011;9350;53.176;8.194;2023-04-24T01:47:38;2.75;;;1.70;;
18443;SDS011;9350;53.176;8.194;2023-04-24T01:50:06;1.88;;;1.75;;
18443;SDS011;9350;53.176;8.194;2023-04-24T01:52:33;1.80;;;1.70;;
18443;SDS011;9350;53.176;8.194;2023-04-24T01:55:01;1.90;;;1.80;;
18443;SDS011;9350;53.176;8.194;2023-04-24T01:57:30;1.70;;;1.63;;
18443;SDS011;9350;53.176;8.194;2023-04-24T01:59:57;2.15;;;1.95;;
18443;SDS011;9350;53.176;8.194;2023-04-24T02:02:24;1.90;;;1.80;;
18443;SDS011;9350;53.176;8.194;2023-04-24T02:04:52;3.35;;;2.00;;
18443;SDS011;9350;53.176;8.194;2023-04-24T02:07:19;2.15;;;1.98;;
18443;SDS011;9350;53.176;8.194;2023-04-24T02:09:45;2.53;;;2.35;;
18443;SDS011;9350;53.176;8.194;2023-04-24T02:12:12;2.55;;;2.45;;
18443;SDS011;9350;53.176;8.194;2023-04-24T02:14:40;2.60;;;2.50;;
18443;SDS011;9350;53.176;8.194;2023-04-24T02:17:08;2.97;;;2.78;;
18443;SDS011;9350;53.176;8.194;2023-04-24T02:19:38;2.70;;;2.60;;
18443;SDS011;9350;53.176;8.194;2023-04-24T02:22:05;2.40;;;2.40;;
18443;SDS011;9350;53.176;8.194;2023-04-24T02:24:32;2.75;;;2.60;;
18443;SDS011;9350;53.176;8.194;2023-04-24T02:26:58;2.95;;;2.85;;
18443;SDS011;9350;53.176;8.194;2023-04-24T02:29:26;3.17;;;2.97;;
18443;SDS011;9350;53.176;8.194;2023-04-24T02:31:55;3.30;;;3.10;;
18443;SDS011;9350;53.176;8.194;2023-04-24T02:34:21;2.67;;;2.58;;
18443;SDS011;9350;53.176;8.194;2023-04-24T02:36:49;3.85;;;2.97;;
18443;SDS011;9350;53.176;8.194;2023-04-24T02:39:16;3.00;;;2.90;;
18443;SDS011;9350;53.176;8.194;2023-04-24T02:41:43;3.53;;;3.20;;
18443;SDS011;9350;53.176;8.194;2023-04-24T02:44:10;3.40;;;3.20;;
18443;SDS011;9350;53.176;8.194;2023-04-24T02:46:37;3.67;;;3.47;;
18443;SDS011;9350;53.176;8.194;2023-04-24T02:49:05;3.38;;;3.17;;
18443;SDS011;9350;53.176;8.194;2023-04-24T02:51:31;3.40;;;3.20;;
18443;SDS011;9350;53.176;8.194;2023-04-24T02:53:58;3.55;;;3.35;;
18443;SDS011;9350;53.176;8.194;2023-04-24T02:56:25;4.47;;;3.35;;
18443;SDS011;9350;53.176;8.194;2023-04-24T02:58:51;3.80;;;3.35;;
18443;SDS011;9350;53.176;8.194;2023-04-24T03:01:18;5.18;;;3.35;;
18443;SDS011;9350;53.176;8.194;2023-04-24T03:03:45;3.58;;;3.33;;
18443;SDS011;9350;53.176;8.194;2023-04-24T03:06:13;4.57;;;4.18;;
18443;SDS011;9350;53.176;8.194;2023-04-24T03:08:40;4.28;;;3.88;;
18443;SDS011;9350;53.176;8.194;2023-04-24T03:11:07;4.43;;;4.03;;
18443;SDS011;9350;53.176;8.194;2023-04-24T03:13:33;4.75;;;4.35;;
18443;SDS011;9350;53.176;8.194;2023-04-24T03:16:00;4.80;;;4.30;;
18443;SDS011;9350;53.176;8.194;2023-04-24T03:18:27;5.03;;;4.57;;
18443;SDS011;9350;53.176;8.194;2023-04-24T03:20:54;4.43;;;4.03;;
18443;SDS011;9350;53.176;8.194;2023-04-24T03:23:22;5.13;;;4.63;;
18443;SDS011;9350;53.176;8.194;2023-04-24T03:25:49;5.35;;;4.85;;
18443;SDS011;9350;53.176;8.194;2023-04-24T03:28:16;5.72;;;4.97;;
18443;SDS011;9350;53.176;8.194;2023-04-24T03:30:42;5.05;;;4.55;;
18443;SDS011;9350;53.176;8.194;2023-04-24T03:33:09;6.18;;;4.32;;
18443;SDS011;9350;53.176;8.194;2023-04-24T03:35:36;5.07;;;4.32;;
18443;SDS011;9350;53.176;8.194;2023-04-24T03:38:03;4.80;;;4.32;;
18443;SDS011;9350;53.176;8.194;2023-04-24T03:40:31;4.53;;;4.07;;
18443;SDS011;9350;53.176;8.194;2023-04-24T03:42:58;4.68;;;4.28;;
18443;SDS011;9350;53.176;8.194;2023-04-24T03:45:25;5.22;;;4.72;;
18443;SDS011;9350;53.176;8.194;2023-04-24T03:47:52;6.03;;;4.78;;
18443;SDS011;9350;53.176;8.194;2023-04-24T03:50:19;7.03;;;4.30;;
18443;SDS011;9350;53.176;8.194;2023-04-24T03:52:46;4.63;;;4.03;;
18443;SDS011;9350;53.176;8.194;2023-04-24T03:55:12;4.63;;;4.22;;
18443;SDS011;9350;53.176;8.194;2023-04-24T03:57:41;4.90;;;4.40;;
18443;SDS011;9350;53.176;8.194;2023-04-24T04:00:08;4.63;;;4.20;;
18443;SDS011;9350;53.176;8.194;2023-04-24T04:02:36;5.18;;;4.68;;
18443;SDS011;9350;53.176;8.194;2023-04-24T04:05:02;4.32;;;3.92;;
18443;SDS011;9350;53.176;8.194;2023-04-24T04:07:30;5.07;;;4.15;;
18443;SDS011;9350;53.176;8.194;2023-04-24T04:09:56;4.95;;;4.55;;
18443;SDS011;9350;53.176;8.194;2023-04-24T04:12:23;5.13;;;4.07;;
18443;SDS011;9350;53.176;8.194;2023-04-24T04:14:51;6.75;;;4.68;;
18443;SDS011;9350;53.176;8.194;2023-04-24T04:17:18;4.55;;;4.15;;
18443;SDS011;9350;53.176;8.194;2023-04-24T04:19:44;4.32;;;3.92;;
18443;SDS011;9350;53.176;8.194;2023-04-24T04:22:11;4.00;;;3.70;;
18443;SDS011;9350;53.176;8.194;2023-04-24T04:24:38;4.18;;;3.78;;
18443;SDS011;9350;53.176;8.194;2023-04-24T04:27:05;4.70;;;4.20;;
18443;SDS011;9350;53.176;8.194;2023-04-24T04:29:33;4.40;;;4.00;;
18443;SDS011;9350;53.176;8.194;2023-04-24T04:32:01;4.00;;;3.70;;
18443;SDS011;9350;53.176;8.194;2023-04-24T04:34:28;3.95;;;3.60;;
18443;SDS011;9350;53.176;8.194;2023-04-24T04:36:56;4.53;;;4.05;;
18443;SDS011;9350;53.176;8.194;2023-04-24T04:39:24;4.57;;;4.20;;
18443;SDS011;9350;53.176;8.194;2023-04-24T04:41:51;4.30;;;4.00;;
18443;SDS011;9350;53.176;8.194;2023-04-24T04:44:17;5.68;;;4.35;;
18443;SDS011;9350;53.176;8.194;2023-04-24T04:46:44;4.80;;;4.40;;
18443;SDS011;9350;53.176;8.194;2023-04-24T04:49:13;5.50;;;4.78;;
18443;SDS011;9350;53.176;8.194;2023-04-24T04:51:41;5.80;;;4.97;;
18443;SDS011;9350;53.176;8.194;2023-04-24T04:54:08;4.95;;;4.45;;
18443;SDS011;9350;53.176;8.194;2023-04-24T04:56:35;4.82;;;4.30;;
18443;SDS011;9350;53.176;8.194;2023-04-24T04:59:01;5.88;;;5.07;;
18443;SDS011;9350;53.176;8.194;2023-04-24T05:01:28;6.80;;;5.00;;
18443;SDS011;9350;53.176;8.194;2023-04-24T05:03:55;6.32;;;5.72;;
18443;SDS011;9350;53.176;8.194;2023-04-24T05:06:23;5.25;;;4.75;;
18443;SDS011;9350;53.176;8.194;2023-04-24T05:08:50;5.10;;;4.70;;
18443;SDS011;9350;53.176;8.194;2023-04-24T05:11:21;6.00;;;4.95;;
18443;SDS011;9350;53.176;8.194;2023-04-24T05:13:48;5.82;;;5.15;;
18443;SDS011;9350;53.176;8.194;2023-04-24T05:16:15;6.97;;;5.40;;
18443;SDS011;9350;53.176;8.194;2023-04-24T05:18:42;7.40;;;5.47;;
18443;SDS011;9350;53.176;8.194;2023-04-24T05:21:08;9.88;;;5.00;;
18443;SDS011;9350;53.176;8.194;2023-04-24T05:23:36;6.13;;;4.88;;
18443;SDS011;9350;53.176;8.194;2023-04-24T05:26:03;6.15;;;5.35;;
18443;SDS011;9350;53.176;8.194;2023-04-24T05:28:30;5.82;;;4.63;;
18443;SDS011;9350;53.176;8.194;2023-04-24T05:30:57;6.43;;;5.20;;
18443;SDS011;9350;53.176;8.194;2023-04-24T05:33:26;7.15;;;5.40;;
18443;SDS011;9350;53.176;8.194;2023-04-24T05:35:52;5.97;;;5.38;;
18443;SDS011;9350;53.176;8.194;2023-04-24T05:38:19;7.07;;;5.40;;
18443;SDS011;9350;53.176;8.194;2023-04-24T05:40:47;9.75;;;6.13;;
18443;SDS011;9350;53.176;8.194;2023-04-24T05:43:14;7.22;;;5.68;;
18443;SDS011;9350;53.176;8.194;2023-04-24T05:45:41;7.85;;;5.68;;
18443;SDS011;9350;53.176;8.194;2023-04-24T05:48:08;6.78;;;6.07;;
18443;SDS011;9350;53.176;8.194;2023-04-24T05:50:34;7.70;;;5.97;;
18443;SDS011;9350;53.176;8.194;2023-04-24T05:53:01;6.68;;;5.80;;
18443;SDS011;9350;53.176;8.194;2023-04-24T05:55:28;7.97;;;5.70;;
18443;SDS011;9350;53.176;8.194;2023-04-24T05:57:57;7.32;;;5.97;;
18443;SDS011;9350;53.176;8.194;2023-04-24T06:00:24;9.00;;;5.93;;
18443;SDS011;9350;53.176;8.194;2023-04-24T06:02:51;8.60;;;5.90;;
18443;SDS011;9350;53.176;8.194;2023-04-24T06:05:19;6.68;;;5.38;;
18443;SDS011;9350;53.176;8.194;2023-04-24T06:07:45;7.93;;;5.90;;
18443;SDS011;9350;53.176;8.194;2023-04-24T06:10:13;9.57;;;6.57;;
18443;SDS011;9350;53.176;8.194;2023-04-24T06:12:40;8.05;;;6.05;;
18443;SDS011;9350;53.176;8.194;2023-04-24T06:15:08;7.18;;;6.10;;
18443;SDS011;9350;53.176;8.194;2023-04-24T06:17:36;9.18;;;5.28;;
18443;SDS011;9350;53.176;8.194;2023-04-24T06:20:03;8.57;;;5.93;;
18443;SDS011;9350;53.176;8.194;2023-04-24T06:22:31;6.97;;;5.07;;
18443;SDS011;9350;53.176;8.194;2023-04-24T06:24:59;7.03;;;5.93;;
18443;SDS011;9350;53.176;8.194;2023-04-24T06:27:25;8.82;;;6.20;;
18443;SDS011;9350;53.176;8.194;2023-04-24T06:29:52;8.63;;;5.75;;
18443;SDS011;9350;53.176;8.194;2023-04-24T06:32:22;7.25;;;5.85;;
18443;SDS011;9350;53.176;8.194;2023-04-24T06:34:49;9.05;;;6.07;;
18443;SDS011;9350;53.176;8.194;2023-04-24T06:37:16;8.27;;;6.28;;
18443;SDS011;9350;53.176;8.194;2023-04-24T06:39:44;7.82;;;6.15;;
18443;SDS011;9350;53.176;8.194;2023-04-24T06:42:11;6.93;;;6.05;;
18443;SDS011;9350;53.176;8.194;2023-04-24T06:44:37;10.73;;;5.97;;
18443;SDS011;9350;53.176;8.194;2023-04-24T06:47:06;10.95;;;6.22;;
18443;SDS011;9350;53.176;8.194;2023-04-24T06:49:35;6.38;;;5.68;;
18443;SDS011;9350;53.176;8.194;2023-04-24T06:52:02;9.85;;;6.25;;
18443;SDS011;9350;53.176;8.194;2023-04-24T06:54:29;9.35;;;6.88;;
18443;SDS011;9350;53.176;8.194;2023-04-24T06:56:56;6.85;;;6.13;;
18443;SDS011;9350;53.176;8.194;2023-04-24T06:59:23;6.90;;;6.20;;
18443;SDS011;9350;53.176;8.194;2023-04-24T07:01:50;8.85;;;6.47;;
18443;SDS011;9350;53.176;8.194;2023-04-24T07:04:17;7.55;;;6.72;;
18443;SDS011;9350;53.176;8.194;2023-04-24T07:06:47;8.25;;;6.40;;
18443;SDS011;9350;53.176;8.194;2023-04-24T07:09:16;8.88;;;7.03;;
18443;SDS011;9350;53.176;8.194;2023-04-24T07:11:43;8.93;;;6.43;;
18443;SDS011;9350;53.176;8.194;2023-04-24T07:14:10;10.30;;;6.63;;
18443;SDS011;9350;53.176;8.194;2023-04-24T07:16:37;7.43;;;6.43;;
18443;SDS011;9350;53.176;8.194;2023-04-24T07:19:03;7.93;;;6.25;;
18443;SDS011;9350;53.176;8.194;2023-04-24T07:21:30;7.22;;;6.47;;
18443;SDS011;9350;53.176;8.194;2023-04-24T07:23:58;10.90;;;6.82;;
18443;SDS011;9350;53.176;8.194;2023-04-24T07:26:25;7.50;;;6.47;;
18443;SDS011;9350;53.176;8.194;2023-04-24T07:28:52;9.23;;;7.53;;
18443;SDS011;9350;53.176;8.194;2023-04-24T07:31:19;9.65;;;7.25;;
18443;SDS011;9350;53.176;8.194;2023-04-24T07:33:46;10.40;;;7.10;;
18443;SDS011;9350;53.176;8.194;2023-04-24T07:36:13;10.10;;;7.07;;
18443;SDS011;9350;53.176;8.194;2023-04-24T07:38:43;8.80;;;7.25;;
18443;SDS011;9350;53.176;8.194;2023-04-24T07:41:12;9.68;;;6.70;;
18443;SDS011;9350;53.176;8.194;2023-04-24T07:43:39;9.93;;;7.32;;
18443;SDS011;9350;53.176;8.194;2023-04-24T07:46:05;7.93;;;6.75;;
18443;SDS011;9350;53.176;8.194;2023-04-24T07:48:32;8.98;;;7.18;;
18443;SDS011;9350;53.176;8.194;2023-04-24T07:50:59;8.93;;;7.40;;
18443;SDS011;9350;53.176;8.194;2023-04-24T07:53:26;8.60;;;6.93;;
18443;SDS011;9350;53.176;8.194;2023-04-24T07:55:53;9.27;;;7.47;;
18443;SDS011;9350;53.176;8.194;2023-04-24T07:58:21;10.15;;;7.20;;
18443;SDS011;9350;53.176;8.194;2023-04-24T08:00:49;9.32;;;7.22;;
18443;SDS011;9350;53.176;8.194;2023-04-24T08:03:16;9.27;;;6.60;;
18443;SDS011;9350;53.176;8.194;2023-04-24T08:05:45;9.13;;;7.53;;
18443;SDS011;9350;53.176;8.194;2023-04-24T08:08:11;8.88;;;6.82;;
18443;SDS011;9350;53.176;8.194;2023-04-24T08:10:39;7.97;;;7.18;;
18443;SDS011;9350;53.176;8.194;2023-04-24T08:13:06;8.95;;;6.78;;
18443;SDS011;9350;53.176;8.194;2023-04-24T08:15:34;8.25;;;6.65;;
18443;SDS011;9350;53.176;8.194;2023-04-24T08:18:01;7.25;;;6.53;;
18443;SDS011;9350;53.176;8.194;2023-04-24T08:20:28;11.35;;;6.28;;
18443;SDS011;9350;53.176;8.194;2023-04-24T08:22:55;7.57;;;5.90;;
18443;SDS011;9350;53.176;8.194;2023-04-24T08:25:22;6.38;;;5.60;;
18443;SDS011;9350;53.176;8.194;2023-04-24T08:27:49;7.85;;;5.90;;
18443;SDS011;9350;53.176;8.194;2023-04-24T08:30:16;8.77;;;6.07;;
18443;SDS011;9350;53.176;8.194;2023-04-24T08:32:44;7.85;;;5.72;;
18443;SDS011;9350;53.176;8.194;2023-04-24T08:35:11;7.47;;;5.80;;
18443;SDS011;9350;53.176;8.194;2023-04-24T08:37:38;7.05;;;5.80;;
18443;SDS011;9350;53.176;8.194;2023-04-24T08:40:06;7.70;;;5.10;;
18443;SDS011;9350;53.176;8.194;2023-04-24T08:42:39;5.75;;;5.22;;
18443;SDS011;9350;53.176;8.194;2023-04-24T08:45:08;8.10;;;5.63;;
18443;SDS011;9350;53.176;8.194;2023-04-24T08:47:35;5.03;;;4.50;;
18443;SDS011;9350;53.176;8.194;2023-04-24T08:50:05;4.78;;;4.38;;
18443;SDS011;9350;53.176;8.194;2023-04-24T08:52:33;5.20;;;4.35;;
18443;SDS011;9350;53.176;8.194;2023-04-24T08:55:00;5.80;;;4.72;;
18443;SDS011;9350;53.176;8.194;2023-04-24T08:57:27;7.00;;;4.70;;
18443;SDS011;9350;53.176;8.194;2023-04-24T08:59:56;5.22;;;4.72;;
18443;SDS011;9350;53.176;8.194;2023-04-24T09:02:24;5.30;;;4.40;;
18443;SDS011;9350;53.176;8.194;2023-04-24T09:04:51;6.47;;;4.93;;
18443;SDS011;9350;53.176;8.194;2023-04-24T09:07:20;5.90;;;4.30;;
18443;SDS011;9350;53.176;8.194;2023-04-24T09:09:50;5.22;;;4.72;;
18443;SDS011;9350;53.176;8.194;2023-04-24T09:12:17;5.60;;;4.97;;
18443;SDS011;9350;53.176;8.194;2023-04-24T09:14:44;4.95;;;4.50;;
18443;SDS011;9350;53.176;8.194;2023-04-24T09:17:11;6.47;;;4.35;;
18443;SDS011;9350;53.176;8.194;2023-04-24T09:19:38;5.07;;;4.50;;
18443;SDS011;9350;53.176;8.194;2023-04-24T09:22:06;5.53;;;4.78;;
18443;SDS011;9350;53.176;8.194;2023-04-24T09:24:34;6.13;;;4.60;;
18443;SDS011;9350;53.176;8.194;2023-04-24T09:27:01;6.68;;;4.78;;
18443;SDS011;9350;53.176;8.194;2023-04-24T09:29:29;5.53;;;4.78;;
18443;SDS011;9350;53.176;8.194;2023-04-24T09:31:57;6.78;;;5.15;;
18443;SDS011;9350;53.176;8.194;2023-04-24T09:34:24;5.47;;;4.80;;
18443;SDS011;9350;53.176;8.194;2023-04-24T09:36:53;6.90;;;5.85;;
18443;SDS011;9350;53.176;8.194;2023-04-24T09:39:20;11.05;;;5.25;;
18443;SDS011;9350;53.176;8.194;2023-04-24T09:41:48;6.30;;;5.70;;
18443;SDS011;9350;53.176;8.194;2023-04-24T09:44:17;7.38;;;5.47;;
18443;SDS011;9350;53.176;8.194;2023-04-24T09:46:48;6.53;;;5.63;;
18443;SDS011;9350;53.176;8.194;2023-04-24T09:49:20;7.85;;;5.88;;
18443;SDS011;9350;53.176;8.194;2023-04-24T09:51:48;7.60;;;6.22;;
18443;SDS011;9350;53.176;8.194;2023-04-24T09:54:16;7.13;;;5.93;;
18443;SDS011;9350;53.176;8.194;2023-04-24T09:56:46;7.88;;;5.20;;
18443;SDS011;9350;53.176;8.194;2023-04-24T09:59:16;7.43;;;4.90;;
18443;SDS011;9350;53.176;8.194;2023-04-24T10:01:44;6.80;;;5.30;;
18443;SDS011;9350;53.176;8.194;2023-04-24T10:04:16;5.40;;;4.90;;
18443;SDS011;9350;53.176;8.194;2023-04-24T10:06:44;6.32;;;4.93;;
18443;SDS011;9350;53.176;8.194;2023-04-24T10:09:11;4.90;;;4.40;;
18443;SDS011;9350;53.176;8.194;2023-04-24T10:11:40;4.43;;;3.90;;
18443;SDS011;9350;53.176;8.194;2023-04-24T10:14:09;4.72;;;4.32;;
18443;SDS011;9350;53.176;8.194;2023-04-24T10:16:38;4.28;;;3.67;;
18443;SDS011;9350;53.176;8.194;2023-04-24T10:19:06;4.53;;;4.13;;
18443;SDS011;9350;53.176;8.194;2023-04-24T10:21:34;3.88;;;3.47;;
18443;SDS011;9350;53.176;8.194;2023-04-24T10:24:02;3.28;;;2.97;;
18443;SDS011;9350;53.176;8.194;2023-04-24T10:26:32;5.82;;;4.28;;
18443;SDS011;9350;53.176;8.194;2023-04-24T10:29:00;4.20;;;3.90;;
18443;SDS011;9350;53.176;8.194;2023-04-24T10:31:27;3.92;;;3.63;;
18443;SDS011;9350;53.176;8.194;2023-04-24T10:33:59;6.22;;;4.05;;
18443;SDS011;9350;53.176;8.194;2023-04-24T10:36:30;3.50;;;3.20;;
18443;SDS011;9350;53.176;8.194;2023-04-24T10:39:00;3.15;;;2.90;;
18443;SDS011;9350;53.176;8.194;2023-04-24T10:41:29;3.72;;;2.40;;
18443;SDS011;9350;53.176;8.194;2023-04-24T10:44:06;3.33;;;2.72;;
18443;SDS011;9350;53.176;8.194;2023-04-24T10:46:34;3.55;;;2.70;;
18443;SDS011;9350;53.176;8.194;2023-04-24T10:49:04;2.80;;;2.60;;
18443;SDS011;9350;53.176;8.194;2023-04-24T10:51:44;3.00;;;2.60;;
18443;SDS011;9350;53.176;8.194;2023-04-24T10:54:22;3.55;;;2.67;;
18443;SDS011;9350;53.176;8.194;2023-04-24T10:56:51;2.75;;;2.55;;
18443;SDS011;9350;53.176;8.194;2023-04-24T10:59:24;3.42;;;3.05;;
18443;SDS011;9350;53.176;8.194;2023-04-24T11:01:52;3.85;;;3.03;;
18443;SDS011;9350;53.176;8.194;2023-04-24T11:04:30;3.20;;;2.75;;
18443;SDS011;9350;53.176;8.194;2023-04-24T11:07:00;3.80;;;3.03;;
18443;SDS011;9350;53.176;8.194;2023-04-24T11:09:27;3.00;;;2.80;;
18443;SDS011;9350;53.176;8.194;2023-04-24T11:12:02;3.40;;;3.05;;
18443;SDS011;9350;53.176;8.194;2023-04-24T11:14:31;4.57;;;2.97;;
18443;SDS011;9350;53.176;8.194;2023-04-24T11:17:29;5.78;;;2.92;;
18443;SDS011;9350;53.176;8.194;2023-04-24T11:20:01;3.22;;;3.03;;
18443;SDS011;9350;53.176;8.194;2023-04-24T11:22:30;3.03;;;2.83;;
18443;SDS011;9350;53.176;8.194;2023-04-24T11:25:00;3.13;;;2.92;;
18443;SDS011;9350;53.176;8.194;2023-04-24T11:27:29;3.38;;;3.08;;
18443;SDS011;9350;53.176;8.194;2023-04-24T11:30:01;3.08;;;2.88;;
18443;SDS011;9350;53.176;8.194;2023-04-24T11:32:29;5.18;;;3.20;;
18443;SDS011;9350;53.176;8.194;2023-04-24T11:35:02;4.03;;;3.47;;
18443;SDS011;9350;53.176;8.194;2023-04-24T11:37:33;3.22;;;3.00;;
18443;SDS011;9350;53.176;8.194;2023-04-24T11:40:01;2.60;;;2.45;;
18443;SDS011;9350;53.176;8.194;2023-04-24T11:42:28;2.45;;;2.25;;
18443;SDS011;9350;53.176;8.194;2023-04-24T11:44:59;2.03;;;1.88;;
18443;SDS011;9350;53.176;8.194;2023-04-24T11:47:27;3.78;;;2.20;;
18443;SDS011;9350;53.176;8.194;2023-04-24T11:49:55;2.22;;;2.00;;
18443;SDS011;9350;53.176;8.194;2023-04-24T11:52:23;2.35;;;2.25;;
18443;SDS011;9350;53.176;8.194;2023-04-24T11:54:49;2.30;;;2.20;;
18443;SDS011;9350;53.176;8.194;2023-04-24T11:57:18;2.90;;;2.60;;
18443;SDS011;9350;53.176;8.194;2023-04-24T11:59:46;3.15;;;2.55;;
18443;SDS011;9350;53.176;8.194;2023-04-24T12:02:19;5.47;;;3.80;;
18443;SDS011;9350;53.176;8.194;2023-04-24T12:04:47;7.63;;;5.00;;
18443;SDS011;9350;53.176;8.194;2023-04-24T12:07:14;8.13;;;5.60;;
18443;SDS011;9350;53.176;8.194;2023-04-24T12:09:43;9.57;;;6.32;;
18443;SDS011;9350;53.176;8.194;2023-04-24T12:12:11;10.93;;;6.03;;
18443;SDS011;9350;53.176;8.194;2023-04-24T12:14:47;9.77;;;6.70;;
18443;SDS011;9350;53.176;8.194;2023-04-24T12:17:14;11.48;;;6.75;;
18443;SDS011;9350;53.176;8.194;2023-04-24T12:19:45;11.70;;;7.65;;
18443;SDS011;9350;53.176;8.194;2023-04-24T12:22:13;13.18;;;8.52;;
18443;SDS011;9350;53.176;8.194;2023-04-24T12:24:57;11.95;;;8.05;;
18443;SDS011;9350;53.176;8.194;2023-04-24T12:27:26;13.10;;;8.27;;
18443;SDS011;9350;53.176;8.194;2023-04-24T12:29:55;12.70;;;7.95;;
18443;SDS011;9350;53.176;8.194;2023-04-24T12:32:22;12.68;;;8.30;;
18443;SDS011;9350;53.176;8.194;2023-04-24T12:34:50;12.18;;;7.50;;
18443;SDS011;9350;53.176;8.194;2023-04-24T12:37:17;11.48;;;7.38;;
18443;SDS011;9350;53.176;8.194;2023-04-24T12:39:44;10.68;;;6.97;;
18443;SDS011;9350;53.176;8.194;2023-04-24T12:42:25;11.30;;;6.72;;
18443;SDS011;9350;53.176;8.194;2023-04-24T12:44:56;10.13;;;7.43;;
18443;SDS011;9350;53.176;8.194;2023-04-24T12:47:24;10.60;;;6.88;;
18443;SDS011;9350;53.176;8.194;2023-04-24T12:49:51;6.88;;;5.75;;
18443;SDS011;9350;53.176;8.194;2023-04-24T12:52:18;6.82;;;5.00;;
18443;SDS011;9350;53.176;8.194;2023-04-24T12:54:45;12.35;;;4.60;;
18443;SDS011;9350;53.176;8.194;2023-04-24T12:57:13;14.18;;;4.95;;
18443;SDS011;9350;53.176;8.194;2023-04-24T12:59:40;8.30;;;4.90;;
18443;SDS011;9350;53.176;8.194;2023-04-24T13:02:07;10.88;;;5.05;;
18443;SDS011;9350;53.176;8.194;2023-04-24T13:04:35;9.75;;;4.80;;
18443;SDS011;9350;53.176;8.194;2023-04-24T13:07:02;13.45;;;5.70;;
18443;SDS011;9350;53.176;8.194;2023-04-24T13:09:29;12.95;;;5.60;;
18443;SDS011;9350;53.176;8.194;2023-04-24T13:11:56;12.05;;;5.65;;
18443;SDS011;9350;53.176;8.194;2023-04-24T13:14:24;14.52;;;5.63;;
18443;SDS011;9350;53.176;8.194;2023-04-24T13:16:51;11.93;;;5.85;;
18443;SDS011;9350;53.176;8.194;2023-04-24T13:19:18;10.38;;;5.72;;
18443;SDS011;9350;53.176;8.194;2023-04-24T13:21:45;8.48;;;5.30;;
18443;SDS011;9350;53.176;8.194;2023-04-24T13:24:11;11.02;;;4.90;;
18443;SDS011;9350;53.176;8.194;2023-04-24T13:26:40;13.05;;;5.25;;
18443;SDS011;9350;53.176;8.194;2023-04-24T13:29:07;12.48;;;4.93;;
18443;SDS011;9350;53.176;8.194;2023-04-24T13:31:35;11.25;;;4.90;;
18443;SDS011;9350;53.176;8.194;2023-04-24T13:34:02;7.45;;;4.03;;
18443;SDS011;9350;53.176;8.194;2023-04-24T13:36:29;12.38;;;3.80;;
18443;SDS011;9350;53.176;8.194;2023-04-24T13:38:56;8.85;;;4.00;;
18443;SDS011;9350;53.176;8.194;2023-04-24T13:41:23;7.85;;;4.13;;
18443;SDS011;9350;53.176;8.194;2023-04-24T13:43:50;7.65;;;3.75;;
18443;SDS011;9350;53.176;8.194;2023-04-24T13:46:16;20.23;;;6.53;;
18443;SDS011;9350;53.176;8.194;2023-04-24T13:48:44;12.50;;;5.25;;
18443;SDS011;9350;53.176;8.194;2023-04-24T13:51:11;82.70;;;18.95;;
18443;SDS011;9350;53.176;8.194;2023-04-24T13:53:38;19.90;;;6.90;;
18443;SDS011;9350;53.176;8.194;2023-04-24T13:56:05;18.98;;;5.47;;
18443;SDS011;9350;53.176;8.194;2023-04-24T13:58:32;35.78;;;7.32;;
18443;SDS011;9350;53.176;8.194;2023-04-24T14:00:59;21.83;;;7.00;;
18443;SDS011;9350;53.176;8.194;2023-04-24T14:03:26;13.73;;;4.97;;
18443;SDS011;9350;53.176;8.194;2023-04-24T14:05:54;12.35;;;4.28;;
18443;SDS011;9350;53.176;8.194;2023-04-24T14:08:21;14.23;;;4.70;;
18443;SDS011;9350;53.176;8.194;2023-04-24T14:10:48;10.02;;;4.13;;
18443;SDS011;9350;53.176;8.194;2023-04-24T14:13:15;8.23;;;4.10;;
18443;SDS011;9350;53.176;8.194;2023-04-24T14:15:42;12.63;;;4.70;;
18443;SDS011;9350;53.176;8.194;2023-04-24T14:18:09;12.38;;;5.00;;
18443;SDS011;9350;53.176;8.194;2023-04-24T14:20:36;11.20;;;3.80;;
18443;SDS011;9350;53.176;8.194;2023-04-24T14:23:04;6.13;;;3.90;;
18443;SDS011;9350;53.176;8.194;2023-04-24T14:25:31;9.52;;;3.83;;
18443;SDS011;9350;53.176;8.194;2023-04-24T14:27:57;9.77;;;3.80;;
18443;SDS011;9350;53.176;8.194;2023-04-24T14:30:24;7.18;;;3.20;;
18443;SDS011;9350;53.176;8.194;2023-04-24T14:32:51;10.38;;;3.15;;
18443;SDS011;9350;53.176;8.194;2023-04-24T14:35:18;5.70;;;2.75;;
18443;SDS011;9350;53.176;8.194;2023-04-24T14:37:45;8.18;;;2.80;;
18443;SDS011;9350;53.176;8.194;2023-04-24T14:40:14;9.43;;;2.60;;
18443;SDS011;9350;53.176;8.194;2023-04-24T14:42:41;8.40;;;2.33;;
18443;SDS011;9350;53.176;8.194;2023-04-24T14:45:08;5.10;;;1.77;;
18443;SDS011;9350;53.176;8.194;2023-04-24T14:47:36;4.55;;;1.75;;
18443;SDS011;9350;53.176;8.194;2023-04-24T14:50:03;4.18;;;1.70;;
18443;SDS011;9350;53.176;8.194;2023-04-24T14:52:30;5.68;;;2.10;;
18443;SDS011;9350;53.176;8.194;2023-04-24T14:54:57;2.97;;;1.88;;
18443;SDS011;9350;53.176;8.194;2023-04-24T14:57:25;4.07;;;1.90;;
18443;SDS011;9350;53.176;8.194;2023-04-24T14:59:52;8.27;;;2.47;;
18443;SDS011;9350;53.176;8.194;2023-04-24T15:02:19;7.30;;;2.28;;
18443;SDS011;9350;53.176;8.194;2023-04-24T15:04:46;8.85;;;2.97;;